sensor_id;sensor_type;location;lat;lon;timestamp;P1;durP1;ratioP1;P2;durP2;ratioP2
39128;SDS011;24864;49.940;19.770;2023-03-17T00:01:46;108.00;;;44.85;;
39128;SDS011;24864;49.940;19.770;2023-03-17T00:04:17;120.35;;;46.85;;
39128;SDS011;24864;49.940;19.770;2023-03-17T00:06:45;119.00;;;47.90;;
39128;SDS011;24864;49.940;19.770;2023-03-17T00:09:14;121.18;;;47.00;;
39128;SDS011;24864;49.940;19.770;2023-03-17T00:11:44;117.28;;;47.95;;
39128;SDS011;24864;49.940;19.770;2023-03-17T00:14:14;115.85;;;44.65;;
39128;SDS011;24864;49.940;19.770;2023-03-17T00:16:43;123.72;;;47.22;;
39128;SDS011;24864;49.940;19.770;2023-03-17T00:19:14;99.70;;;39.85;;
39128;SDS011;24864;49.940;19.770;2023-03-17T00:21:43;113.63;;;42.42;;
39128;SDS011;24864;49.940;19.770;2023-03-17T00:24:12;116.03;;;42.67;;
39128;SDS011;24864;49.940;19.770;2023-03-17T00:26:41;109.45;;;41.33;;
39128;SDS011;24864;49.940;19.770;2023-03-17T00:29:09;111.57;;;42.42;;
39128;SDS011;24864;49.940;19.770;2023-03-17T00:31:38;110.70;;;43.13;;
39128;SDS011;24864;49.940;19.770;2023-03-17T00:34:08;127.20;;;45.35;;
39128;SDS011;24864;49.940;19.770;2023-03-17T00:36:37;106.70;;;43.08;;
39128;SDS011;24864;49.940;19.770;2023-03-17T00:39:08;110.78;;;44.92;;
39128;SDS011;24864;49.940;19.770;2023-03-17T00:41:38;115.82;;;46.80;;
39128;SDS011;24864;49.940;19.770;2023-03-17T00:44:06;124.03;;;44.08;;
39128;SDS011;24864;49.940;19.770;2023-03-17T00:46:35;117.13;;;46.15;;
39128;SDS011;24864;49.940;19.770;2023-03-17T00:49:09;111.03;;;45.13;;
39128;SDS011;24864;49.940;19.770;2023-03-17T00:51:41;124.07;;;46.33;;
39128;SDS011;24864;49.940;19.770;2023-03-17T00:54:11;121.50;;;46.20;;
39128;SDS011;24864;49.940;19.770;2023-03-17T00:56:40;115.57;;;43.05;;
39128;SDS011;24864;49.940;19.770;2023-03-17T00:59:12;116.35;;;44.42;;
39128;SDS011;24864;49.940;19.770;2023-03-17T01:01:45;100.40;;;43.20;;
39128;SDS011;24864;49.940;19.770;2023-03-17T01:04:15;109.32;;;41.85;;
39128;SDS011;24864;49.940;19.770;2023-03-17T01:06:45;99.18;;;39.47;;
39128;SDS011;24864;49.940;19.770;2023-03-17T01:09:13;95.20;;;41.47;;
39128;SDS011;24864;49.940;19.770;2023-03-17T01:11:44;102.50;;;39.72;;
39128;SDS011;24864;49.940;19.770;2023-03-17T01:14:14;103.28;;;39.50;;
39128;SDS011;24864;49.940;19.770;2023-03-17T01:16:42;100.20;;;39.58;;
39128;SDS011;24864;49.940;19.770;2023-03-17T01:19:11;91.07;;;38.33;;
39128;SDS011;24864;49.940;19.770;2023-03-17T01:21:41;100.03;;;40.03;;
39128;SDS011;24864;49.940;19.770;2023-03-17T01:24:09;99.55;;;38.65;;
39128;SDS011;24864;49.940;19.770;2023-03-17T01:26:38;80.78;;;37.00;;
39128;SDS011;24864;49.940;19.770;2023-03-17T01:29:07;86.07;;;35.13;;
39128;SDS011;24864;49.940;19.770;2023-03-17T01:31:35;97.22;;;37.53;;
39128;SDS011;24864;49.940;19.770;2023-03-17T01:34:04;97.10;;;36.22;;
39128;SDS011;24864;49.940;19.770;2023-03-17T01:36:32;83.68;;;34.58;;
39128;SDS011;24864;49.940;19.770;2023-03-17T01:39:02;81.38;;;34.63;;
39128;SDS011;24864;49.940;19.770;2023-03-17T01:41:33;87.22;;;34.45;;
39128;SDS011;24864;49.940;19.770;2023-03-17T01:44:01;81.50;;;34.55;;
39128;SDS011;24864;49.940;19.770;2023-03-17T01:46:31;87.28;;;33.55;;
39128;SDS011;24864;49.940;19.770;2023-03-17T01:49:02;76.25;;;33.63;;
39128;SDS011;24864;49.940;19.770;2023-03-17T01:51:45;80.55;;;32.47;;
39128;SDS011;24864;49.940;19.770;2023-03-17T01:54:19;76.95;;;32.55;;
39128;SDS011;24864;49.940;19.770;2023-03-17T01:56:51;81.72;;;33.25;;
39128;SDS011;24864;49.940;19.770;2023-03-17T01:59:23;73.30;;;33.00;;
39128;SDS011;24864;49.940;19.770;2023-03-17T02:01:53;79.88;;;32.88;;
39128;SDS011;24864;49.940;19.770;2023-03-17T02:04:24;81.57;;;31.93;;
39128;SDS011;24864;49.940;19.770;2023-03-17T02:06:52;83.95;;;32.28;;
39128;SDS011;24864;49.940;19.770;2023-03-17T02:09:25;71.30;;;30.90;;
39128;SDS011;24864;49.940;19.770;2023-03-17T02:11:54;73.25;;;30.42;;
39128;SDS011;24864;49.940;19.770;2023-03-17T02:14:23;73.65;;;33.80;;
39128;SDS011;24864;49.940;19.770;2023-03-17T02:16:51;83.45;;;32.20;;
39128;SDS011;24864;49.940;19.770;2023-03-17T02:19:20;74.45;;;32.10;;
39128;SDS011;24864;49.940;19.770;2023-03-17T02:21:50;71.00;;;31.00;;
39128;SDS011;24864;49.940;19.770;2023-03-17T02:24:21;75.05;;;31.48;;
39128;SDS011;24864;49.940;19.770;2023-03-17T02:26:53;71.45;;;31.00;;
39128;SDS011;24864;49.940;19.770;2023-03-17T02:29:22;74.63;;;31.13;;
39128;SDS011;24864;49.940;19.770;2023-03-17T02:31:51;78.22;;;30.50;;
39128;SDS011;24864;49.940;19.770;2023-03-17T02:34:19;70.28;;;27.23;;
39128;SDS011;24864;49.940;19.770;2023-03-17T02:36:49;63.92;;;26.30;;
39128;SDS011;24864;49.940;19.770;2023-03-17T02:39:17;71.93;;;28.15;;
39128;SDS011;24864;49.940;19.770;2023-03-17T02:41:45;61.55;;;27.20;;
39128;SDS011;24864;49.940;19.770;2023-03-17T02:44:13;66.32;;;27.35;;
39128;SDS011;24864;49.940;19.770;2023-03-17T02:46:41;57.42;;;25.77;;
39128;SDS011;24864;49.940;19.770;2023-03-17T02:49:09;61.55;;;26.08;;
39128;SDS011;24864;49.940;19.770;2023-03-17T02:51:38;61.15;;;25.33;;
39128;SDS011;24864;49.940;19.770;2023-03-17T02:54:07;61.20;;;24.10;;
39128;SDS011;24864;49.940;19.770;2023-03-17T02:56:36;57.97;;;25.23;;
39128;SDS011;24864;49.940;19.770;2023-03-17T02:59:04;54.05;;;23.73;;
39128;SDS011;24864;49.940;19.770;2023-03-17T03:01:33;57.78;;;23.85;;
39128;SDS011;24864;49.940;19.770;2023-03-17T03:04:01;51.30;;;21.85;;
39128;SDS011;24864;49.940;19.770;2023-03-17T03:06:29;54.00;;;21.85;;
39128;SDS011;24864;49.940;19.770;2023-03-17T03:08:58;51.80;;;22.45;;
39128;SDS011;24864;49.940;19.770;2023-03-17T03:11:27;54.80;;;22.92;;
39128;SDS011;24864;49.940;19.770;2023-03-17T03:13:55;57.88;;;23.10;;
39128;SDS011;24864;49.940;19.770;2023-03-17T03:16:24;56.38;;;22.63;;
39128;SDS011;24864;49.940;19.770;2023-03-17T03:18:52;47.95;;;22.60;;
39128;SDS011;24864;49.940;19.770;2023-03-17T03:21:20;61.05;;;23.90;;
39128;SDS011;24864;49.940;19.770;2023-03-17T03:23:48;55.67;;;21.80;;
39128;SDS011;24864;49.940;19.770;2023-03-17T03:26:16;56.30;;;23.00;;
39128;SDS011;24864;49.940;19.770;2023-03-17T03:28:46;50.28;;;19.58;;
39128;SDS011;24864;49.940;19.770;2023-03-17T03:31:14;50.25;;;19.50;;
39128;SDS011;24864;49.940;19.770;2023-03-17T03:33:42;53.78;;;21.05;;
39128;SDS011;24864;49.940;19.770;2023-03-17T03:36:11;54.05;;;20.13;;
39128;SDS011;24864;49.940;19.770;2023-03-17T03:38:40;45.83;;;19.20;;
39128;SDS011;24864;49.940;19.770;2023-03-17T03:41:08;38.03;;;18.90;;
39128;SDS011;24864;49.940;19.770;2023-03-17T03:43:36;43.45;;;17.88;;
39128;SDS011;24864;49.940;19.770;2023-03-17T03:46:05;50.08;;;19.42;;
39128;SDS011;24864;49.940;19.770;2023-03-17T03:48:34;45.00;;;18.38;;
39128;SDS011;24864;49.940;19.770;2023-03-17T03:51:02;42.42;;;19.50;;
39128;SDS011;24864;49.940;19.770;2023-03-17T03:53:30;47.58;;;20.05;;
39128;SDS011;24864;49.940;19.770;2023-03-17T03:55:58;44.72;;;19.65;;
39128;SDS011;24864;49.940;19.770;2023-03-17T03:58:27;46.88;;;18.75;;
39128;SDS011;24864;49.940;19.770;2023-03-17T04:00:55;54.85;;;20.50;;
39128;SDS011;24864;49.940;19.770;2023-03-17T04:03:24;42.72;;;19.83;;
39128;SDS011;24864;49.940;19.770;2023-03-17T04:05:53;52.97;;;21.45;;
39128;SDS011;24864;49.940;19.770;2023-03-17T04:08:21;47.60;;;19.50;;
39128;SDS011;24864;49.940;19.770;2023-03-17T04:10:49;40.75;;;19.25;;
39128;SDS011;24864;49.940;19.770;2023-03-17T04:13:17;43.92;;;19.60;;
39128;SDS011;24864;49.940;19.770;2023-03-17T04:15:45;45.67;;;18.25;;
39128;SDS011;24864;49.940;19.770;2023-03-17T04:18:13;40.08;;;18.33;;
39128;SDS011;24864;49.940;19.770;2023-03-17T04:20:43;40.50;;;18.77;;
39128;SDS011;24864;49.940;19.770;2023-03-17T04:23:11;45.75;;;17.73;;
39128;SDS011;24864;49.940;19.770;2023-03-17T04:25:40;37.30;;;17.75;;
39128;SDS011;24864;49.940;19.770;2023-03-17T04:28:08;42.85;;;18.80;;
39128;SDS011;24864;49.940;19.770;2023-03-17T04:30:36;41.25;;;18.52;;
39128;SDS011;24864;49.940;19.770;2023-03-17T04:33:04;36.90;;;16.60;;
39128;SDS011;24864;49.940;19.770;2023-03-17T04:35:32;39.00;;;17.70;;
39128;SDS011;24864;49.940;19.770;2023-03-17T04:38:02;44.97;;;18.77;;
39128;SDS011;24864;49.940;19.770;2023-03-17T04:40:30;41.72;;;18.30;;
39128;SDS011;24864;49.940;19.770;2023-03-17T04:42:58;44.38;;;17.25;;
39128;SDS011;24864;49.940;19.770;2023-03-17T04:45:29;35.08;;;16.73;;
39128;SDS011;24864;49.940;19.770;2023-03-17T04:47:57;37.30;;;16.92;;
39128;SDS011;24864;49.940;19.770;2023-03-17T04:50:26;38.35;;;16.63;;
39128;SDS011;24864;49.940;19.770;2023-03-17T04:52:54;37.33;;;15.73;;
39128;SDS011;24864;49.940;19.770;2023-03-17T04:55:24;38.40;;;16.20;;
39128;SDS011;24864;49.940;19.770;2023-03-17T04:57:52;35.17;;;15.75;;
39128;SDS011;24864;49.940;19.770;2023-03-17T05:00:21;34.47;;;17.08;;
39128;SDS011;24864;49.940;19.770;2023-03-17T05:02:49;37.70;;;17.88;;
39128;SDS011;24864;49.940;19.770;2023-03-17T05:05:17;37.35;;;16.38;;
39128;SDS011;24864;49.940;19.770;2023-03-17T05:07:45;33.03;;;16.73;;
39128;SDS011;24864;49.940;19.770;2023-03-17T05:10:13;36.03;;;16.85;;
39128;SDS011;24864;49.940;19.770;2023-03-17T05:12:43;41.22;;;18.90;;
39128;SDS011;24864;49.940;19.770;2023-03-17T05:15:11;41.97;;;18.45;;
39128;SDS011;24864;49.940;19.770;2023-03-17T05:17:39;41.65;;;17.48;;
39128;SDS011;24864;49.940;19.770;2023-03-17T05:20:08;47.65;;;17.25;;
39128;SDS011;24864;49.940;19.770;2023-03-17T05:22:38;40.22;;;17.70;;
39128;SDS011;24864;49.940;19.770;2023-03-17T05:25:06;40.15;;;16.65;;
39128;SDS011;24864;49.940;19.770;2023-03-17T05:27:35;39.58;;;16.92;;
39128;SDS011;24864;49.940;19.770;2023-03-17T05:30:05;41.83;;;15.95;;
39128;SDS011;24864;49.940;19.770;2023-03-17T05:32:34;43.92;;;16.83;;
39128;SDS011;24864;49.940;19.770;2023-03-17T05:35:03;35.45;;;16.23;;
39128;SDS011;24864;49.940;19.770;2023-03-17T05:37:31;36.83;;;16.40;;
39128;SDS011;24864;49.940;19.770;2023-03-17T05:39:59;32.92;;;16.30;;
39128;SDS011;24864;49.940;19.770;2023-03-17T05:42:28;32.95;;;17.13;;
39128;SDS011;24864;49.940;19.770;2023-03-17T05:44:56;37.15;;;16.73;;
39128;SDS011;24864;49.940;19.770;2023-03-17T05:47:26;41.65;;;16.52;;
39128;SDS011;24864;49.940;19.770;2023-03-17T05:49:54;35.13;;;15.50;;
39128;SDS011;24864;49.940;19.770;2023-03-17T05:52:22;42.55;;;17.10;;
39128;SDS011;24864;49.940;19.770;2023-03-17T05:54:50;40.75;;;17.15;;
39128;SDS011;24864;49.940;19.770;2023-03-17T05:57:18;30.23;;;16.10;;
39128;SDS011;24864;49.940;19.770;2023-03-17T05:59:47;36.67;;;16.90;;
39128;SDS011;24864;49.940;19.770;2023-03-17T06:02:16;41.13;;;17.48;;
39128;SDS011;24864;49.940;19.770;2023-03-17T06:04:46;34.17;;;15.57;;
39128;SDS011;24864;49.940;19.770;2023-03-17T06:07:14;41.60;;;17.27;;
39128;SDS011;24864;49.940;19.770;2023-03-17T06:09:43;43.92;;;18.30;;
39128;SDS011;24864;49.940;19.770;2023-03-17T06:12:11;38.45;;;17.15;;
39128;SDS011;24864;49.940;19.770;2023-03-17T06:14:39;31.45;;;15.18;;
39128;SDS011;24864;49.940;19.770;2023-03-17T06:17:07;44.22;;;17.23;;
39128;SDS011;24864;49.940;19.770;2023-03-17T06:19:35;35.17;;;15.80;;
39128;SDS011;24864;49.940;19.770;2023-03-17T06:22:05;52.63;;;19.10;;
39128;SDS011;24864;49.940;19.770;2023-03-17T06:24:33;35.42;;;16.92;;
39128;SDS011;24864;49.940;19.770;2023-03-17T06:27:01;36.88;;;16.35;;
39128;SDS011;24864;49.940;19.770;2023-03-17T06:29:30;38.83;;;16.15;;
39128;SDS011;24864;49.940;19.770;2023-03-17T06:31:57;32.45;;;15.57;;
39128;SDS011;24864;49.940;19.770;2023-03-17T06:34:45;30.13;;;14.73;;
39128;SDS011;24864;49.940;19.770;2023-03-17T06:37:15;34.53;;;15.48;;
39128;SDS011;24864;49.940;19.770;2023-03-17T06:39:43;35.35;;;15.57;;
39128;SDS011;24864;49.940;19.770;2023-03-17T06:42:12;33.22;;;15.88;;
39128;SDS011;24864;49.940;19.770;2023-03-17T06:44:40;37.85;;;15.60;;
39128;SDS011;24864;49.940;19.770;2023-03-17T06:47:08;35.47;;;16.75;;
39128;SDS011;24864;49.940;19.770;2023-03-17T06:49:36;34.60;;;16.48;;
39128;SDS011;24864;49.940;19.770;2023-03-17T06:52:04;35.78;;;16.08;;
39128;SDS011;24864;49.940;19.770;2023-03-17T06:54:35;31.10;;;14.98;;
39128;SDS011;24864;49.940;19.770;2023-03-17T06:57:03;30.27;;;14.35;;
39128;SDS011;24864;49.940;19.770;2023-03-17T06:59:32;32.70;;;14.48;;
39128;SDS011;24864;49.940;19.770;2023-03-17T07:02:00;29.88;;;15.00;;
39128;SDS011;24864;49.940;19.770;2023-03-17T07:04:29;32.72;;;16.02;;
39128;SDS011;24864;49.940;19.770;2023-03-17T07:06:57;36.22;;;16.70;;
39128;SDS011;24864;49.940;19.770;2023-03-17T07:09:26;31.38;;;15.40;;
39128;SDS011;24864;49.940;19.770;2023-03-17T07:11:56;36.10;;;14.65;;
39128;SDS011;24864;49.940;19.770;2023-03-17T07:14:24;35.05;;;15.63;;
39128;SDS011;24864;49.940;19.770;2023-03-17T07:16:52;28.95;;;14.50;;
39128;SDS011;24864;49.940;19.770;2023-03-17T07:19:21;30.08;;;13.30;;
39128;SDS011;24864;49.940;19.770;2023-03-17T07:21:49;28.52;;;12.88;;
39128;SDS011;24864;49.940;19.770;2023-03-17T07:24:17;28.40;;;13.18;;
39128;SDS011;24864;49.940;19.770;2023-03-17T07:26:45;22.33;;;12.65;;
39128;SDS011;24864;49.940;19.770;2023-03-17T07:29:16;27.38;;;12.52;;
39128;SDS011;24864;49.940;19.770;2023-03-17T07:31:44;29.13;;;11.25;;
39128;SDS011;24864;49.940;19.770;2023-03-17T07:34:12;26.83;;;11.10;;
39128;SDS011;24864;49.940;19.770;2023-03-17T07:36:40;25.20;;;11.88;;
39128;SDS011;24864;49.940;19.770;2023-03-17T07:39:10;26.23;;;13.68;;
39128;SDS011;24864;49.940;19.770;2023-03-17T07:41:39;25.20;;;11.93;;
39128;SDS011;24864;49.940;19.770;2023-03-17T07:44:08;22.38;;;12.35;;
39128;SDS011;24864;49.940;19.770;2023-03-17T07:46:38;27.80;;;12.60;;
39128;SDS011;24864;49.940;19.770;2023-03-17T07:49:06;22.00;;;10.63;;
39128;SDS011;24864;49.940;19.770;2023-03-17T07:51:35;20.30;;;10.93;;
39128;SDS011;24864;49.940;19.770;2023-03-17T07:54:04;25.23;;;12.82;;
39128;SDS011;24864;49.940;19.770;2023-03-17T07:56:32;19.63;;;10.80;;
39128;SDS011;24864;49.940;19.770;2023-03-17T07:59:00;20.65;;;11.15;;
39128;SDS011;24864;49.940;19.770;2023-03-17T08:01:28;21.58;;;10.35;;
39128;SDS011;24864;49.940;19.770;2023-03-17T08:03:58;19.05;;;10.55;;
39128;SDS011;24864;49.940;19.770;2023-03-17T08:06:26;22.95;;;10.90;;
39128;SDS011;24864;49.940;19.770;2023-03-17T08:08:55;23.55;;;11.30;;
39128;SDS011;24864;49.940;19.770;2023-03-17T08:11:23;18.65;;;10.43;;
39128;SDS011;24864;49.940;19.770;2023-03-17T08:13:54;18.88;;;10.55;;
39128;SDS011;24864;49.940;19.770;2023-03-17T08:16:22;40.17;;;20.10;;
39128;SDS011;24864;49.940;19.770;2023-03-17T08:18:51;18.80;;;10.52;;
39128;SDS011;24864;49.940;19.770;2023-03-17T08:21:21;18.23;;;8.98;;
39128;SDS011;24864;49.940;19.770;2023-03-17T08:23:49;20.75;;;10.25;;
39128;SDS011;24864;49.940;19.770;2023-03-17T08:26:17;23.15;;;10.38;;
39128;SDS011;24864;49.940;19.770;2023-03-17T08:28:46;19.05;;;10.32;;
39128;SDS011;24864;49.940;19.770;2023-03-17T08:31:16;21.15;;;10.60;;
39128;SDS011;24864;49.940;19.770;2023-03-17T08:33:47;34.40;;;16.52;;
39128;SDS011;24864;49.940;19.770;2023-03-17T08:36:16;30.48;;;16.92;;
39128;SDS011;24864;49.940;19.770;2023-03-17T08:38:47;27.80;;;16.33;;
39128;SDS011;24864;49.940;19.770;2023-03-17T08:41:16;33.33;;;16.75;;
39128;SDS011;24864;49.940;19.770;2023-03-17T08:43:46;29.45;;;16.08;;
39128;SDS011;24864;49.940;19.770;2023-03-17T08:46:15;32.00;;;16.80;;
39128;SDS011;24864;49.940;19.770;2023-03-17T08:48:47;32.65;;;15.73;;
39128;SDS011;24864;49.940;19.770;2023-03-17T08:51:17;29.23;;;14.50;;
39128;SDS011;24864;49.940;19.770;2023-03-17T08:53:51;15.48;;;7.72;;
39128;SDS011;24864;49.940;19.770;2023-03-17T08:56:20;12.45;;;7.18;;
39128;SDS011;24864;49.940;19.770;2023-03-17T08:58:49;12.95;;;7.68;;
39128;SDS011;24864;49.940;19.770;2023-03-17T09:01:17;9.63;;;5.78;;
39128;SDS011;24864;49.940;19.770;2023-03-17T09:03:47;14.88;;;7.10;;
39128;SDS011;24864;49.940;19.770;2023-03-17T09:06:16;14.80;;;7.50;;
39128;SDS011;24864;49.940;19.770;2023-03-17T09:08:44;12.07;;;7.15;;
39128;SDS011;24864;49.940;19.770;2023-03-17T09:11:14;14.55;;;6.60;;
39128;SDS011;24864;49.940;19.770;2023-03-17T09:13:44;12.43;;;6.32;;
39128;SDS011;24864;49.940;19.770;2023-03-17T09:16:13;10.70;;;6.88;;
39128;SDS011;24864;49.940;19.770;2023-03-17T09:18:41;11.65;;;6.10;;
39128;SDS011;24864;49.940;19.770;2023-03-17T09:21:09;10.48;;;6.43;;
39128;SDS011;24864;49.940;19.770;2023-03-17T09:23:38;9.75;;;5.65;;
39128;SDS011;24864;49.940;19.770;2023-03-17T09:26:07;14.85;;;6.63;;
39128;SDS011;24864;49.940;19.770;2023-03-17T09:28:37;10.82;;;6.07;;
39128;SDS011;24864;49.940;19.770;2023-03-17T09:31:05;12.13;;;6.00;;
39128;SDS011;24864;49.940;19.770;2023-03-17T09:33:37;11.05;;;5.78;;
39128;SDS011;24864;49.940;19.770;2023-03-17T09:36:06;12.63;;;5.75;;
39128;SDS011;24864;49.940;19.770;2023-03-17T09:38:34;9.80;;;5.13;;
39128;SDS011;24864;49.940;19.770;2023-03-17T09:41:07;11.52;;;5.03;;
39128;SDS011;24864;49.940;19.770;2023-03-17T09:43:53;9.52;;;4.68;;
39128;SDS011;24864;49.940;19.770;2023-03-17T09:46:26;8.23;;;4.60;;
39128;SDS011;24864;49.940;19.770;2023-03-17T09:49:01;9.40;;;5.32;;
39128;SDS011;24864;49.940;19.770;2023-03-17T09:51:30;10.90;;;5.22;;
39128;SDS011;24864;49.940;19.770;2023-03-17T09:53:59;7.75;;;5.20;;
39128;SDS011;24864;49.940;19.770;2023-03-17T09:56:29;8.43;;;5.65;;
39128;SDS011;24864;49.940;19.770;2023-03-17T09:59:02;7.72;;;4.75;;
39128;SDS011;24864;49.940;19.770;2023-03-17T10:01:33;12.38;;;5.32;;
39128;SDS011;24864;49.940;19.770;2023-03-17T10:04:02;10.30;;;5.15;;
39128;SDS011;24864;49.940;19.770;2023-03-17T10:06:33;7.57;;;4.38;;
39128;SDS011;24864;49.940;19.770;2023-03-17T10:09:06;9.73;;;5.13;;
39128;SDS011;24864;49.940;19.770;2023-03-17T10:11:41;7.80;;;4.82;;
39128;SDS011;24864;49.940;19.770;2023-03-17T10:14:17;9.13;;;5.43;;
39128;SDS011;24864;49.940;19.770;2023-03-17T10:16:54;8.90;;;5.20;;
39128;SDS011;24864;49.940;19.770;2023-03-17T10:19:26;8.60;;;4.97;;
39128;SDS011;24864;49.940;19.770;2023-03-17T10:21:56;8.95;;;4.60;;
39128;SDS011;24864;49.940;19.770;2023-03-17T10:24:28;8.00;;;4.45;;
39128;SDS011;24864;49.940;19.770;2023-03-17T10:26:58;8.95;;;3.85;;
39128;SDS011;24864;49.940;19.770;2023-03-17T10:31:59;9.77;;;4.25;;
39128;SDS011;24864;49.940;19.770;2023-03-17T10:34:28;7.32;;;4.13;;
39128;SDS011;24864;49.940;19.770;2023-03-17T10:36:59;5.05;;;3.00;;
39128;SDS011;24864;49.940;19.770;2023-03-17T10:39:29;4.87;;;2.90;;
39128;SDS011;24864;49.940;19.770;2023-03-17T10:41:59;5.97;;;2.63;;
39128;SDS011;24864;49.940;19.770;2023-03-17T10:44:41;8.45;;;3.78;;
39128;SDS011;24864;49.940;19.770;2023-03-17T10:47:21;6.55;;;3.72;;
39128;SDS011;24864;49.940;19.770;2023-03-17T10:49:52;5.55;;;3.70;;
39128;SDS011;24864;49.940;19.770;2023-03-17T10:52:22;6.10;;;3.50;;
39128;SDS011;24864;49.940;19.770;2023-03-17T10:54:54;9.32;;;4.28;;
39128;SDS011;24864;49.940;19.770;2023-03-17T10:57:23;6.10;;;4.07;;
39128;SDS011;24864;49.940;19.770;2023-03-17T10:59:53;7.80;;;3.97;;
39128;SDS011;24864;49.940;19.770;2023-03-17T11:02:24;9.15;;;4.97;;
39128;SDS011;24864;49.940;19.770;2023-03-17T11:04:55;8.40;;;3.83;;
39128;SDS011;24864;49.940;19.770;2023-03-17T11:07:27;8.30;;;4.10;;
39128;SDS011;24864;49.940;19.770;2023-03-17T11:09:59;8.07;;;4.63;;
39128;SDS011;24864;49.940;19.770;2023-03-17T11:12:29;9.13;;;4.57;;
39128;SDS011;24864;49.940;19.770;2023-03-17T11:15:05;9.75;;;4.43;;
39128;SDS011;24864;49.940;19.770;2023-03-17T11:17:37;9.80;;;4.55;;
39128;SDS011;24864;49.940;19.770;2023-03-17T11:20:15;7.38;;;4.50;;
39128;SDS011;24864;49.940;19.770;2023-03-17T11:22:53;7.25;;;5.05;;
39128;SDS011;24864;49.940;19.770;2023-03-17T11:25:25;8.93;;;4.05;;
39128;SDS011;24864;49.940;19.770;2023-03-17T11:27:58;10.60;;;4.00;;
39128;SDS011;24864;49.940;19.770;2023-03-17T11:30:34;6.50;;;3.45;;
39128;SDS011;24864;49.940;19.770;2023-03-17T11:33:05;5.97;;;3.60;;
39128;SDS011;24864;49.940;19.770;2023-03-17T11:35:43;5.93;;;3.63;;
39128;SDS011;24864;49.940;19.770;2023-03-17T11:38:18;6.53;;;3.58;;
39128;SDS011;24864;49.940;19.770;2023-03-17T11:40:54;5.85;;;3.70;;
39128;SDS011;24864;49.940;19.770;2023-03-17T11:43:46;7.72;;;4.53;;
39128;SDS011;24864;49.940;19.770;2023-03-17T11:46:23;9.52;;;4.22;;
39128;SDS011;24864;49.940;19.770;2023-03-17T11:48:55;8.18;;;3.55;;
39128;SDS011;24864;49.940;19.770;2023-03-17T11:51:30;5.28;;;3.60;;
39128;SDS011;24864;49.940;19.770;2023-03-17T11:54:06;6.50;;;3.00;;
39128;SDS011;24864;49.940;19.770;2023-03-17T11:56:38;5.40;;;3.08;;
39128;SDS011;24864;49.940;19.770;2023-03-17T11:59:16;5.20;;;3.10;;
39128;SDS011;24864;49.940;19.770;2023-03-17T12:01:54;6.45;;;3.28;;
39128;SDS011;24864;49.940;19.770;2023-03-17T12:04:26;4.65;;;2.60;;
39128;SDS011;24864;49.940;19.770;2023-03-17T12:07:02;4.05;;;2.45;;
39128;SDS011;24864;49.940;19.770;2023-03-17T12:09:36;4.35;;;2.40;;
39128;SDS011;24864;49.940;19.770;2023-03-17T12:12:08;3.75;;;2.38;;
39128;SDS011;24864;49.940;19.770;2023-03-17T12:14:42;7.72;;;2.80;;
39128;SDS011;24864;49.940;19.770;2023-03-17T12:17:17;5.63;;;3.47;;
39128;SDS011;24864;49.940;19.770;2023-03-17T12:19:54;6.32;;;3.83;;
39128;SDS011;24864;49.940;19.770;2023-03-17T12:22:26;6.72;;;3.97;;
39128;SDS011;24864;49.940;19.770;2023-03-17T12:25:02;8.32;;;3.75;;
39128;SDS011;24864;49.940;19.770;2023-03-17T12:27:37;6.45;;;4.15;;
39128;SDS011;24864;49.940;19.770;2023-03-17T12:32:45;9.07;;;4.43;;
39128;SDS011;24864;49.940;19.770;2023-03-17T12:35:21;9.40;;;4.75;;
39128;SDS011;24864;49.940;19.770;2023-03-17T12:37:54;7.47;;;3.80;;
39128;SDS011;24864;49.940;19.770;2023-03-17T12:40:23;8.85;;;4.68;;
39128;SDS011;24864;49.940;19.770;2023-03-17T12:42:56;7.43;;;4.20;;
39128;SDS011;24864;49.940;19.770;2023-03-17T12:48:38;6.53;;;2.80;;
39128;SDS011;24864;49.940;19.770;2023-03-17T12:54:11;9.82;;;3.90;;
39128;SDS011;24864;49.940;19.770;2023-03-17T12:56:42;7.95;;;3.58;;
39128;SDS011;24864;49.940;19.770;2023-03-17T12:59:13;7.57;;;3.33;;
39128;SDS011;24864;49.940;19.770;2023-03-17T13:04:16;6.13;;;2.92;;
39128;SDS011;24864;49.940;19.770;2023-03-17T13:06:53;5.88;;;3.20;;
39128;SDS011;24864;49.940;19.770;2023-03-17T13:09:32;5.07;;;2.80;;
39128;SDS011;24864;49.940;19.770;2023-03-17T13:15:26;6.55;;;3.22;;
39128;SDS011;24864;49.940;19.770;2023-03-17T13:18:21;5.07;;;2.92;;
39128;SDS011;24864;49.940;19.770;2023-03-17T13:21:10;7.07;;;3.15;;
39128;SDS011;24864;49.940;19.770;2023-03-17T13:23:41;5.80;;;2.83;;
39128;SDS011;24864;49.940;19.770;2023-03-17T13:26:12;5.35;;;3.33;;
39128;SDS011;24864;49.940;19.770;2023-03-17T13:28:42;4.80;;;2.80;;
39128;SDS011;24864;49.940;19.770;2023-03-17T13:31:14;5.05;;;3.17;;
39128;SDS011;24864;49.940;19.770;2023-03-17T13:34:01;7.32;;;2.70;;
39128;SDS011;24864;49.940;19.770;2023-03-17T13:36:39;5.95;;;2.47;;
39128;SDS011;24864;49.940;19.770;2023-03-17T13:39:21;6.43;;;2.75;;
39128;SDS011;24864;49.940;19.770;2023-03-17T13:42:30;5.10;;;2.90;;
39128;SDS011;24864;49.940;19.770;2023-03-17T13:45:08;5.28;;;2.78;;
39128;SDS011;24864;49.940;19.770;2023-03-17T13:47:48;3.78;;;2.33;;
39128;SDS011;24864;49.940;19.770;2023-03-17T13:50:20;5.40;;;2.65;;
39128;SDS011;24864;49.940;19.770;2023-03-17T13:52:53;7.55;;;3.10;;
39128;SDS011;24864;49.940;19.770;2023-03-17T13:58:31;8.75;;;4.25;;
39128;SDS011;24864;49.940;19.770;2023-03-17T14:01:01;7.97;;;4.20;;
39128;SDS011;24864;49.940;19.770;2023-03-17T14:03:34;11.27;;;4.63;;
39128;SDS011;24864;49.940;19.770;2023-03-17T14:06:06;7.57;;;4.47;;
39128;SDS011;24864;49.940;19.770;2023-03-17T14:08:40;8.05;;;4.13;;
39128;SDS011;24864;49.940;19.770;2023-03-17T14:11:16;5.97;;;3.95;;
39128;SDS011;24864;49.940;19.770;2023-03-17T14:13:52;8.40;;;3.65;;
39128;SDS011;24864;49.940;19.770;2023-03-17T14:16:33;6.68;;;4.45;;
39128;SDS011;24864;49.940;19.770;2023-03-17T14:19:08;7.50;;;4.15;;
39128;SDS011;24864;49.940;19.770;2023-03-17T14:21:39;7.72;;;4.40;;
39128;SDS011;24864;49.940;19.770;2023-03-17T14:24:17;8.77;;;4.25;;
39128;SDS011;24864;49.940;19.770;2023-03-17T14:26:47;15.05;;;4.15;;
39128;SDS011;24864;49.940;19.770;2023-03-17T14:29:16;12.18;;;4.80;;
39128;SDS011;24864;49.940;19.770;2023-03-17T14:31:46;7.03;;;4.30;;
39128;SDS011;24864;49.940;19.770;2023-03-17T14:34:16;7.32;;;4.03;;
39128;SDS011;24864;49.940;19.770;2023-03-17T14:36:47;9.00;;;4.90;;
39128;SDS011;24864;49.940;19.770;2023-03-17T14:39:22;7.55;;;4.22;;
39128;SDS011;24864;49.940;19.770;2023-03-17T14:41:58;8.35;;;4.30;;
39128;SDS011;24864;49.940;19.770;2023-03-17T14:44:27;9.75;;;4.95;;
39128;SDS011;24864;49.940;19.770;2023-03-17T14:47:03;10.23;;;4.50;;
39128;SDS011;24864;49.940;19.770;2023-03-17T14:49:32;10.13;;;4.70;;
39128;SDS011;24864;49.940;19.770;2023-03-17T14:52:00;10.90;;;5.43;;
39128;SDS011;24864;49.940;19.770;2023-03-17T14:54:31;11.13;;;5.13;;
39128;SDS011;24864;49.940;19.770;2023-03-17T14:57:00;9.70;;;5.15;;